Bruce L. Hahn — WDH6451 — position and weather

sailwx.info

Track history (hours):
 
Tides and Currents Weather Stations Pressure Air Temp Water Temp Dewpoint Dewpoint Depression Visibility Wind Speed Wind Dir Waves Ship Positions

Bruce L. Hahn

Owner: Marquette Transportation Co. LLC, Paducah, KY. More information available from US FCC via Universal Licensing System and Coast Guard Vessel Documentation Center.

Last reported at 2018-Feb-22 18:51 UTC. Time now 2018-Feb-25 15:51 UTC.
Position N 31°60' W 091°06'.

Length 52 m; draft 3 m.

Type: Ship (hazmat cat B). MMSI: 367638090.

Date/timePositionNaut miles runAvg speedWind from/ knotsBaromVisibWave heightAir tempDewpointWater temp
2018-Feb-22 18:51N 31°60' W 091°06'7 8.0
2018-Feb-22 17:56N 32°07' W 091°07'2 4.0
2018-Feb-22 17:31N 32°08' W 091°05'4 7.9
2018-Feb-22 17:00N 32°09' W 091°00'611.4
2018-Feb-22 16:30N 32°15' W 090°59'611.1
2018-Feb-22 16:00N 32°19' W 090°54'3 6.8
2018-Feb-22 15:30N 32°21' W 090°57'0 0.3
2018-Feb-22 15:00N 32°21' W 090°57'0 0.0
2018-Feb-22 14:30N 32°21' W 090°57'0 0.0
2018-Feb-22 14:00N 32°21' W 090°57'0 0.0
2018-Feb-22 13:31N 32°21' W 090°57'0 0.0
2018-Feb-22 13:00N 32°21' W 090°57'0 0.0
2018-Feb-22 12:30N 32°21' W 090°57'0 1.0
2018-Feb-22 12:00N 32°21' W 090°58'3 5.2
2018-Feb-22 11:30N 32°23' W 090°60'5 8.9
2018-Feb-22 11:00N 32°26' W 091°04'5 9.8
2018-Feb-22 10:30N 32°30' W 091°07'0 0.6
2018-Feb-22 10:00N 32°31' W 091°07'0 0.1
2018-Feb-22 09:30N 32°31' W 091°07'0 0.0
2018-Feb-22 09:00N 32°31' W 091°07'0 0.0
2018-Feb-22 08:30N 32°31' W 091°07'0 0.1
2018-Feb-22 07:59N 32°31' W 091°07'0 0.0
2018-Feb-22 07:30N 32°31' W 091°07'0 0.0
2018-Feb-22 06:59N 32°31' W 091°07'0 0.1
2018-Feb-22 06:29N 32°31' W 091°07'0 0.1
2018-Feb-22 05:58N 32°31' W 091°07'1 1.3
2018-Feb-22 05:30N 32°31' W 091°06'3 7.1
2018-Feb-22 05:01N 32°35' W 091°07'  
Track history (hours):
 
Tides and Currents Weather Stations Pressure Air Temp Water Temp Dewpoint Dewpoint Depression Visibility Wind Speed Wind Dir Waves Ship Positions

Bruce L. Hahn

Owner: Marquette Transportation Co. LLC, Paducah, KY. More information available from US FCC via Universal Licensing System and Coast Guard Vessel Documentation Center.

Last reported at 2018-Feb-22 18:51 UTC. Time now 2018-Feb-25 15:51 UTC.
Position N 31°60' W 091°06'.

Length 52 m; draft 3 m.

Type: Ship (hazmat cat B). MMSI: 367638090.

Date/timePositionNaut miles runAvg speedWind from/ knotsBaromVisibWave heightAir tempDewpointWater temp
2018-Feb-22 18:51N 31°60' W 091°06'7 8.0
2018-Feb-22 17:56N 32°07' W 091°07'2 4.0
2018-Feb-22 17:31N 32°08' W 091°05'4 7.9
2018-Feb-22 17:00N 32°09' W 091°00'611.4
2018-Feb-22 16:30N 32°15' W 090°59'611.1
2018-Feb-22 16:00N 32°19' W 090°54'3 6.8
2018-Feb-22 15:30N 32°21' W 090°57'0 0.3
2018-Feb-22 15:00N 32°21' W 090°57'0 0.0
2018-Feb-22 14:30N 32°21' W 090°57'0 0.0
2018-Feb-22 14:00N 32°21' W 090°57'0 0.0
2018-Feb-22 13:31N 32°21' W 090°57'0 0.0
2018-Feb-22 13:00N 32°21' W 090°57'0 0.0
2018-Feb-22 12:30N 32°21' W 090°57'0 1.0
2018-Feb-22 12:00N 32°21' W 090°58'3 5.2
2018-Feb-22 11:30N 32°23' W 090°60'5 8.9
2018-Feb-22 11:00N 32°26' W 091°04'5 9.8
2018-Feb-22 10:30N 32°30' W 091°07'0 0.6
2018-Feb-22 10:00N 32°31' W 091°07'0 0.1
2018-Feb-22 09:30N 32°31' W 091°07'0 0.0
2018-Feb-22 09:00N 32°31' W 091°07'0 0.0
2018-Feb-22 08:30N 32°31' W 091°07'0 0.1
2018-Feb-22 07:59N 32°31' W 091°07'0 0.0
2018-Feb-22 07:30N 32°31' W 091°07'0 0.0
2018-Feb-22 06:59N 32°31' W 091°07'0 0.1
2018-Feb-22 06:29N 32°31' W 091°07'0 0.1
2018-Feb-22 05:58N 32°31' W 091°07'1 1.3
2018-Feb-22 05:30N 32°31' W 091°06'3 7.1
2018-Feb-22 05:01N 32°35' W 091°07'  

Dump ship's entire track history